Wilmington, VT (05363)

8:09 PM EDT on September 18, 2014 (GMT -0400)
Wastewater Treatment Plant | Change Station
CLOSE
Current Station
Personal Weather Station
Location: Wilmington, VT
Elevation: 1500 ft
Nearby Weather Stations
Active Advisory: Frost Advisory

Elev 1500 ft 42.87 °N, 72.88 °W | Updated 4 minutes ago

Partly Cloudy
Partly Cloudy
52.4 °F
Feels Like 52.4 °F
N
0.0
Wind Variable Wind from SSE
Gusts 0.0 mph

Today
High -- | Low -- °F
--% Chance of Precip.
Yesterday
High -- | Low -- °F
Precip. -- in
6:34 AM 6:56 PM
Waning Crescent, 23% visible
Pressure 30.10 in
Visibility 10.0 miles
Clouds Scattered Clouds 4200 ft
Mostly Cloudy 5500 ft
Dew Point 49 °F
Humidity 89%
Rainfall 0.01 in
Snow Depth Not available.
UV 0 out of 12
Pollen 2.90 out of 12
Ozone Good
PM2.5 Good
Flu Activity Not available.
METAR KDDH 182354Z AUTO 30003KT 10SM SCT042 BKN055 12/08 A3009 RMK AO2 SLP193 60000 T01220083 10200 20122 53024

More Conditions Fewer Conditions

Pressure 30.10 in
Visibility 10.0 miles
Clouds Scattered Clouds 4200 ft
Mostly Cloudy 5500 ft
Dew Point 49 °F
Humidity 89%
Rainfall 0.01 in
Snow Depth Not available.
UV 0 out of 12
Pollen 2.90 out of 12
Ozone Good
PM2.5 Good
Flu Activity Not available.
METAR KDDH 182354Z AUTO 30003KT 10SM SCT042 BKN055 12/08 A3009 RMK AO2 SLP193 60000 T01220083 10200 20122 53024

More Conditions Fewer Conditions

10-Day Weather Forecast

Almanac

Astronomy

Sep. 18, 2014 Rise Set
Actual Time 6:34 AM EDT 6:56 PM EDT
Civil Twilight 6:06 AM EDT 7:24 PM EDT
Nautical Twilight 5:32 AM EDT 7:57 PM EDT
Astronomical Twilight 4:58 AM EDT 8:31 PM EDT
Moon 1:18 AM EDT (9/18) 3:50 PM EDT (9/18)
Length of Visible Light 13h 18m
Length of Day
12h 21m
Tomorrow will be 2m 54s shorter.
Waning Crescent, 23% of the Moon is Illuminated
Today
Waning Crescent
Sep 24
New
Oct 1
First Quarter
Oct 8
Full
Oct 15
Last Quarter

Today's Extremes

State Highs State Lows

Community

WunderPhotos

Upload Photos

1,754,500 photos uploaded!

WunderBlogs® & News

Nearby

Air Quality

  Air Quality AQ Index Pollutant
Yesterday Good
OZONE
Current Good
OZONE
Current Good
PM2.5
Thursday Good
PM2.5
Thursday Good
OZONE
Friday Good
PM2.5
Friday Good
OZONE

Snow Depth

Station Depth Elevation
No new snow has been reported.

Earthquake Activity

City Distance Mag. Time & Date
No recent earthquake activity has been reported nearby.
Minimum magnitude displayed is 2.5.

Coastal Water Temperatures

Place Temperature
No Stations Reporting

Nearby Weather Stations